createdAt,value
2023-05-08T00:00:30.117Z,92.83
2023-05-08T00:02:57.663Z,93.19
2023-05-08T00:05:25.105Z,93.31
2023-05-08T00:07:53.797Z,93.76
2023-05-08T00:10:20.909Z,94.02
2023-05-08T00:12:48.490Z,94.40
2023-05-08T00:15:17.933Z,94.52
2023-05-08T00:17:45.004Z,94.59
2023-05-08T00:20:13.048Z,95.40
2023-05-08T00:22:43.850Z,96.32
2023-05-08T00:25:11.330Z,95.96
2023-05-08T00:27:38.867Z,95.88
2023-05-08T00:30:08.205Z,95.82
2023-05-08T00:32:36.407Z,96.44
2023-05-08T00:35:05.047Z,95.55
2023-05-08T00:37:33.446Z,96.05
2023-05-08T00:40:01.165Z,97.00
2023-05-08T00:42:29.377Z,97.86
2023-05-08T00:44:58.220Z,98.64
2023-05-08T00:47:25.371Z,98.89
2023-05-08T00:49:53.897Z,99.11
2023-05-08T00:52:22.956Z,99.88
2023-05-08T00:54:50.346Z,100.00
2023-05-08T00:57:19.004Z,100.00
2023-05-08T00:59:54.403Z,100.00
2023-05-08T01:02:22.145Z,100.00
2023-05-08T01:04:50.227Z,100.00
2023-05-08T01:07:18.320Z,100.00
2023-05-08T01:09:47.000Z,100.00
2023-05-08T01:12:36.010Z,100.00
2023-05-08T01:15:08.767Z,100.00
2023-05-08T01:17:50.308Z,100.00
2023-05-08T01:20:27.537Z,100.00
2023-05-08T01:23:18.444Z,100.00
2023-05-08T01:26:03.478Z,100.00
2023-05-08T01:28:46.792Z,100.00
2023-05-08T01:35:22.514Z,100.00
2023-05-08T01:38:11.028Z,100.00
2023-05-08T01:40:55.126Z,100.00
2023-05-08T01:43:55.919Z,100.00
2023-05-08T01:46:28.059Z,100.00
2023-05-08T01:49:08.641Z,100.00
2023-05-08T01:51:50.006Z,100.00
2023-05-08T01:54:23.342Z,100.00
2023-05-08T01:56:54.747Z,100.00
2023-05-08T01:59:25.044Z,100.00
2023-05-08T02:01:57.519Z,100.00
2023-05-08T02:04:26.545Z,100.00
2023-05-08T02:06:56.557Z,100.00
2023-05-08T02:09:25.539Z,100.00
2023-05-08T02:11:55.808Z,100.00
2023-05-08T02:14:24.437Z,100.00
2023-05-08T02:16:53.227Z,100.00
2023-05-08T02:19:23.934Z,100.00
2023-05-08T02:21:52.341Z,100.00
2023-05-08T02:24:24.574Z,100.00
2023-05-08T02:26:55.669Z,100.00
2023-05-08T02:29:25.348Z,100.00
2023-05-08T02:31:56.529Z,100.00
2023-05-08T02:34:24.902Z,100.00
2023-05-08T02:36:54.376Z,100.00
2023-05-08T02:39:27.201Z,100.00
2023-05-08T02:42:01.220Z,100.00
2023-05-08T02:44:28.980Z,100.00
2023-05-08T02:47:07.526Z,100.00
2023-05-08T02:49:51.158Z,100.00
2023-05-08T02:52:25.704Z,100.00
2023-05-08T02:55:04.884Z,100.00
2023-05-08T02:58:01.638Z,100.00
2023-05-08T03:00:35.705Z,100.00
2023-05-08T03:03:21.727Z,100.00
2023-05-08T03:05:54.551Z,100.00
2023-05-08T03:08:31.056Z,100.00
2023-05-08T03:11:03.461Z,100.00
2023-05-08T03:13:35.147Z,100.00
2023-05-08T03:16:05.872Z,100.00
2023-05-08T03:18:37.266Z,100.00
2023-05-08T03:21:07.120Z,100.00
2023-05-08T03:23:37.484Z,100.00
2023-05-08T03:26:08.223Z,100.00
2023-05-08T03:28:37.485Z,100.00
2023-05-08T03:31:07.795Z,100.00
2023-05-08T03:33:39.363Z,100.00
2023-05-08T03:36:08.136Z,100.00
2023-05-08T03:38:36.454Z,100.00
2023-05-08T03:41:10.499Z,100.00
2023-05-08T03:43:39.014Z,100.00
2023-05-08T03:46:09.306Z,100.00
2023-05-08T03:48:39.308Z,100.00
2023-05-08T03:51:06.528Z,100.00
2023-05-08T03:53:35.567Z,100.00
2023-05-08T03:56:03.171Z,100.00
2023-05-08T03:58:49.198Z,100.00
2023-05-08T04:01:29.422Z,100.00
2023-05-08T04:04:43.997Z,100.00
2023-05-08T04:07:25.038Z,100.00
2023-05-08T04:10:09.936Z,100.00
2023-05-08T04:12:57.191Z,100.00
2023-05-08T04:15:30.136Z,100.00
2023-05-08T04:18:05.326Z,100.00
2023-05-08T04:20:33.895Z,100.00
2023-05-08T04:23:02.585Z,100.00
2023-05-08T04:25:34.013Z,100.00
2023-05-08T04:28:02.966Z,100.00
2023-05-08T04:30:30.597Z,100.00
2023-05-08T04:32:59.824Z,100.00
2023-05-08T04:35:27.319Z,100.00
2023-05-08T04:37:55.516Z,100.00
2023-05-08T04:40:22.874Z,100.00
2023-05-08T04:42:50.255Z,100.00
2023-05-08T04:45:18.369Z,100.00
2023-05-08T04:47:45.932Z,100.00
2023-05-08T04:50:13.284Z,100.00
2023-05-08T04:52:40.690Z,100.00
2023-05-08T04:55:08.844Z,100.00
2023-05-08T04:57:36.406Z,100.00
2023-05-08T05:00:06.420Z,100.00
2023-05-08T05:02:33.630Z,100.00
2023-05-08T05:05:02.511Z,100.00
2023-05-08T05:07:32.282Z,100.00
2023-05-08T05:10:00.858Z,99.39
2023-05-08T05:12:30.204Z,98.17
2023-05-08T05:14:57.504Z,97.58
2023-05-08T05:17:24.699Z,97.40
2023-05-08T05:19:53.448Z,97.77
2023-05-08T05:22:21.202Z,97.47
2023-05-08T05:24:50.620Z,95.44
2023-05-08T05:27:19.909Z,93.99
2023-05-08T05:29:49.515Z,91.99
2023-05-08T05:32:16.910Z,91.12
2023-05-08T05:34:44.513Z,89.56
2023-05-08T05:37:11.906Z,89.87
2023-05-08T05:39:39.222Z,90.71
2023-05-08T05:42:07.940Z,91.00
2023-05-08T05:44:37.144Z,90.45
2023-05-08T05:47:10.433Z,88.99
2023-05-08T05:49:43.342Z,88.92
2023-05-08T05:52:11.018Z,89.35
2023-05-08T05:54:38.625Z,89.63
2023-05-08T05:57:06.898Z,89.25
2023-05-08T05:59:35.385Z,88.96
2023-05-08T06:02:02.877Z,87.62
2023-05-08T06:04:30.506Z,86.89
2023-05-08T06:06:58.444Z,84.56
2023-05-08T06:09:25.681Z,83.94
2023-05-08T06:11:53.146Z,83.80
2023-05-08T06:14:21.590Z,83.27
2023-05-08T06:16:48.735Z,83.01
2023-05-08T06:19:16.245Z,83.54
2023-05-08T06:21:45.704Z,84.77
2023-05-08T06:24:13.078Z,82.95
2023-05-08T06:26:40.507Z,82.81
2023-05-08T06:29:16.220Z,81.93
2023-05-08T06:31:43.609Z,80.61
2023-05-08T06:34:11.213Z,79.76
2023-05-08T06:36:39.554Z,79.12
2023-05-08T06:39:07.829Z,78.57
2023-05-08T06:41:34.977Z,77.99
2023-05-08T06:44:02.318Z,78.25
2023-05-08T06:46:30.346Z,78.11
2023-05-08T06:48:57.753Z,75.16
2023-05-08T06:51:25.315Z,74.81
2023-05-08T06:53:53.761Z,74.95
2023-05-08T06:56:27.384Z,72.44
2023-05-08T06:59:05.011Z,71.99
2023-05-08T07:01:40.803Z,72.03
2023-05-08T07:04:09.142Z,72.12
2023-05-08T07:06:36.622Z,71.47
2023-05-08T07:09:05.144Z,73.52
2023-05-08T07:11:33.673Z,73.66
2023-05-08T07:14:01.174Z,71.48
2023-05-08T07:16:28.563Z,70.61
2023-05-08T07:18:56.981Z,69.87
2023-05-08T07:21:24.500Z,70.93
2023-05-08T07:23:54.151Z,69.94
2023-05-08T07:26:22.210Z,68.74
2023-05-08T07:28:51.263Z,68.18
2023-05-08T07:31:18.943Z,68.33
2023-05-08T07:33:47.384Z,67.53
2023-05-08T07:36:14.917Z,66.95
2023-05-08T07:38:42.383Z,67.80
2023-05-08T07:41:12.170Z,67.20
2023-05-08T07:43:40.939Z,65.77
2023-05-08T07:46:16.233Z,65.10
2023-05-08T07:48:44.173Z,64.43
2023-05-08T07:51:12.430Z,65.18
2023-05-08T07:53:39.831Z,64.42
2023-05-08T07:56:12.984Z,63.01
2023-05-08T07:58:40.860Z,62.86
2023-05-08T08:01:09.470Z,63.21
2023-05-08T08:03:38.946Z,61.97
2023-05-08T08:06:06.349Z,61.10
2023-05-08T08:08:34.216Z,62.28
2023-05-08T08:11:03.703Z,62.16
2023-05-08T08:13:31.801Z,62.19
2023-05-08T08:16:01.653Z,60.93
2023-05-08T08:18:31.533Z,61.47
2023-05-08T08:20:58.743Z,61.35
2023-05-08T08:23:26.302Z,60.46
2023-05-08T08:25:53.860Z,61.27
2023-05-08T08:28:21.033Z,60.73
2023-05-08T08:30:48.881Z,60.46
2023-05-08T08:33:18.792Z,59.66
2023-05-08T08:35:46.531Z,58.65
2023-05-08T08:38:13.966Z,58.75
2023-05-08T08:40:42.504Z,57.59
2023-05-08T08:43:10.986Z,57.10
2023-05-08T08:45:39.638Z,57.99
2023-05-08T08:48:12.391Z,57.49
2023-05-08T08:50:46.747Z,59.14
2023-05-08T08:53:20.514Z,56.70
2023-05-08T08:55:50.708Z,55.77
2023-05-08T08:58:40.863Z,55.00
2023-05-08T09:01:18.299Z,55.73
2023-05-08T09:03:47.702Z,56.41
2023-05-08T09:06:17.882Z,55.34
2023-05-08T09:08:45.724Z,54.80
2023-05-08T09:11:14.322Z,55.01
2023-05-08T09:13:41.997Z,54.38
2023-05-08T09:16:09.301Z,54.22
2023-05-08T09:18:36.968Z,53.00
2023-05-08T09:21:06.945Z,54.68
2023-05-08T09:23:38.407Z,53.24
2023-05-08T09:26:05.761Z,54.19
2023-05-08T09:28:33.267Z,53.47
2023-05-08T09:31:01.932Z,52.88
2023-05-08T09:33:30.581Z,50.50
2023-05-08T09:35:58.579Z,51.28
2023-05-08T09:38:39.683Z,51.26
2023-05-08T09:41:17.203Z,51.36
2023-05-08T09:43:45.611Z,50.30
2023-05-08T09:46:24.002Z,50.76
2023-05-08T09:48:59.246Z,51.18
2023-05-08T09:51:28.327Z,50.53
2023-05-08T09:53:57.535Z,49.91
2023-05-08T09:56:40.051Z,49.45
2023-05-08T09:59:30.418Z,50.04
2023-05-08T10:01:58.750Z,47.60
2023-05-08T10:04:33.626Z,47.08
2023-05-08T10:07:02.390Z,47.83
2023-05-08T10:09:42.718Z,48.89
2023-05-08T10:12:17.233Z,48.98
2023-05-08T10:14:46.818Z,47.38
2023-05-08T10:17:20.742Z,48.53
2023-05-08T10:19:48.912Z,47.83
2023-05-08T10:22:20.110Z,49.07
2023-05-08T10:24:50.368Z,47.23
2023-05-08T10:27:35.061Z,48.18
2023-05-08T10:30:07.152Z,45.97
2023-05-08T10:32:44.503Z,46.43
2023-05-08T10:35:12.595Z,45.83
2023-05-08T10:37:42.657Z,46.55
2023-05-08T10:40:11.579Z,45.38
2023-05-08T10:42:41.586Z,45.66
2023-05-08T10:45:11.092Z,46.18
2023-05-08T10:47:59.610Z,45.98
2023-05-08T10:50:35.707Z,43.23
2023-05-08T10:53:26.316Z,43.32
2023-05-08T10:55:56.347Z,43.40
2023-05-08T10:58:52.856Z,43.86
2023-05-08T11:01:22.329Z,43.38
2023-05-08T11:03:52.969Z,43.95
2023-05-08T11:06:46.619Z,43.80
2023-05-08T11:09:22.312Z,44.54
2023-05-08T11:12:16.859Z,43.88
2023-05-08T11:14:54.202Z,43.97
2023-05-08T11:17:25.888Z,41.87
2023-05-08T11:20:04.526Z,43.93
2023-05-08T11:22:33.375Z,42.14
2023-05-08T11:25:10.023Z,41.17
2023-05-08T11:27:41.613Z,39.69
2023-05-08T11:30:33.568Z,40.12
2023-05-08T11:33:07.376Z,40.04
2023-05-08T11:35:54.187Z,41.07
2023-05-08T11:38:32.995Z,41.55
2023-05-08T11:41:11.511Z,38.86
2023-05-08T11:43:47.946Z,39.66
2023-05-08T11:46:17.625Z,39.29
2023-05-08T11:48:45.332Z,39.48
2023-05-08T11:51:13.902Z,38.38
2023-05-08T11:53:44.812Z,38.26
2023-05-08T11:56:12.375Z,36.91
2023-05-08T11:58:39.795Z,39.13
2023-05-08T12:01:08.385Z,38.51
2023-05-08T12:03:36.057Z,37.34
2023-05-08T12:06:04.897Z,38.29
2023-05-08T12:08:32.224Z,37.71
2023-05-08T12:11:00.302Z,36.62
2023-05-08T12:13:30.131Z,37.06
2023-05-08T12:16:01.438Z,35.89
2023-05-08T12:18:30.822Z,37.63
2023-05-08T12:21:00.174Z,37.02
2023-05-08T12:23:34.430Z,37.27
2023-05-08T12:26:02.509Z,36.34
2023-05-08T12:28:30.138Z,37.35
2023-05-08T12:31:04.793Z,36.68
2023-05-08T12:33:34.145Z,36.61
2023-05-08T12:36:03.525Z,36.50
2023-05-08T12:38:36.111Z,36.26
2023-05-08T12:41:04.884Z,36.17
2023-05-08T12:43:34.945Z,36.15
2023-05-08T12:46:04.430Z,35.39
2023-05-08T12:48:32.267Z,36.08
2023-05-08T12:51:04.645Z,36.61
2023-05-08T12:53:33.739Z,35.14
2023-05-08T12:56:05.352Z,36.41
2023-05-08T12:58:35.086Z,34.81
2023-05-08T13:01:10.408Z,34.56
2023-05-08T13:03:38.778Z,34.81
2023-05-08T13:06:07.741Z,35.17
2023-05-08T13:08:39.517Z,34.58
2023-05-08T13:11:07.925Z,34.24
2023-05-08T13:13:38.391Z,34.72
2023-05-08T13:16:08.562Z,33.38
2023-05-08T13:18:37.051Z,33.45
2023-05-08T13:21:04.385Z,33.13
2023-05-08T13:23:31.710Z,33.59
2023-05-08T13:26:00.269Z,32.87
2023-05-08T13:28:27.610Z,32.85
2023-05-08T13:30:54.732Z,31.66
2023-05-08T13:33:22.108Z,32.51
2023-05-08T13:35:49.489Z,32.53
2023-05-08T13:38:16.960Z,33.13
2023-05-08T13:40:46.544Z,32.72
2023-05-08T13:43:15.937Z,32.77
2023-05-08T13:45:43.518Z,33.26
2023-05-08T13:48:11.829Z,33.06
2023-05-08T13:50:39.348Z,32.23
2023-05-08T13:53:06.829Z,31.89
2023-05-08T13:55:34.371Z,31.84
2023-05-08T13:58:07.350Z,30.98
2023-05-08T14:00:34.982Z,31.74
2023-05-08T14:03:02.505Z,31.27
2023-05-08T14:05:29.958Z,31.33
2023-05-08T14:07:57.403Z,31.61
2023-05-08T14:10:24.914Z,31.67
2023-05-08T14:12:52.337Z,31.31
2023-05-08T14:15:19.787Z,31.85
2023-05-08T14:17:46.879Z,31.40
2023-05-08T14:20:14.424Z,32.38
2023-05-08T14:22:41.686Z,32.47
2023-05-08T14:25:10.434Z,32.36
2023-05-08T14:27:38.723Z,32.84
2023-05-08T14:30:08.344Z,33.08
2023-05-08T14:32:35.646Z,33.03
2023-05-08T14:35:10.657Z,31.76
2023-05-08T14:37:38.101Z,32.54
2023-05-08T14:40:06.600Z,31.63
2023-05-08T14:42:34.210Z,32.26
2023-05-08T14:45:01.702Z,32.51
2023-05-08T14:47:29.168Z,33.13
2023-05-08T14:50:04.850Z,32.21
2023-05-08T14:52:32.381Z,32.31
2023-05-08T14:55:02.458Z,30.77
2023-05-08T14:57:31.086Z,31.77
2023-05-08T14:59:59.592Z,32.79
2023-05-08T15:02:27.131Z,32.40
2023-05-08T15:04:54.601Z,33.28
2023-05-08T15:07:21.937Z,34.21
2023-05-08T15:09:49.512Z,34.23
2023-05-08T15:12:23.082Z,34.12
2023-05-08T15:14:50.486Z,33.39
2023-05-08T15:17:17.814Z,33.03
2023-05-08T15:19:46.341Z,33.08
2023-05-08T15:22:14.564Z,33.69
2023-05-08T15:24:42.007Z,34.11
2023-05-08T15:27:10.306Z,32.88
2023-05-08T15:29:40.134Z,32.73
2023-05-08T15:32:07.749Z,32.90
2023-05-08T15:34:35.129Z,33.93
2023-05-08T15:37:02.709Z,32.97
2023-05-08T15:39:30.024Z,33.47
2023-05-08T15:41:59.588Z,33.91
2023-05-08T15:44:37.675Z,34.33
2023-05-08T15:47:14.034Z,34.41
2023-05-08T15:49:41.445Z,35.30
2023-05-08T15:52:08.668Z,34.17
2023-05-08T15:54:43.712Z,33.82
2023-05-08T15:57:11.045Z,33.21
2023-05-08T15:59:38.339Z,32.97
2023-05-08T16:02:06.146Z,33.16
2023-05-08T16:04:35.326Z,33.80
2023-05-08T16:07:04.702Z,33.21
2023-05-08T16:09:31.841Z,33.70
2023-05-08T16:11:59.885Z,33.96
2023-05-08T16:14:27.539Z,34.83
2023-05-08T16:16:54.630Z,34.72
2023-05-08T16:19:21.873Z,34.65
2023-05-08T16:21:51.282Z,35.20
2023-05-08T16:24:18.878Z,36.22
2023-05-08T16:26:46.597Z,36.71
2023-05-08T16:29:14.203Z,36.61
2023-05-08T16:31:41.784Z,37.05
2023-05-08T16:34:10.321Z,37.74
2023-05-08T16:36:39.873Z,37.44
2023-05-08T16:39:08.121Z,37.21
2023-05-08T16:41:35.463Z,37.25
2023-05-08T16:44:03.923Z,37.70
2023-05-08T16:46:33.465Z,37.49
2023-05-08T16:49:00.869Z,37.87
2023-05-08T16:51:34.410Z,38.11
2023-05-08T16:54:02.172Z,38.08
2023-05-08T16:56:29.440Z,38.48
2023-05-08T16:58:58.783Z,38.68
2023-05-08T17:01:26.206Z,38.57
2023-05-08T17:03:53.458Z,38.50
2023-05-08T17:06:21.063Z,38.18
2023-05-08T17:08:49.383Z,38.85
2023-05-08T17:11:16.939Z,38.91
2023-05-08T17:13:46.553Z,38.94
2023-05-08T17:16:13.823Z,39.76
2023-05-08T17:18:42.322Z,39.80
2023-05-08T17:21:09.804Z,40.75
2023-05-08T17:23:37.222Z,41.19
2023-05-08T17:26:04.704Z,41.23
2023-05-08T17:28:32.409Z,41.23
2023-05-08T17:31:00.118Z,41.36
2023-05-08T17:33:27.786Z,41.63
2023-05-08T17:36:05.460Z,41.15
2023-05-08T17:38:32.939Z,41.09
2023-05-08T17:41:00.788Z,41.33
2023-05-08T17:43:28.986Z,41.45
2023-05-08T17:45:57.403Z,41.59
2023-05-08T17:48:25.040Z,42.22
2023-05-08T17:50:53.292Z,42.57
2023-05-08T17:53:20.621Z,42.54
2023-05-08T17:55:52.270Z,42.57
2023-05-08T17:58:19.452Z,43.14
2023-05-08T18:00:46.858Z,43.29
2023-05-08T18:03:14.585Z,43.72
2023-05-08T18:05:44.112Z,44.01
2023-05-08T18:08:14.681Z,43.82
2023-05-08T18:10:41.861Z,43.97
2023-05-08T18:13:09.411Z,44.35
2023-05-08T18:15:40.707Z,44.52
2023-05-08T18:18:08.523Z,44.49
2023-05-08T18:20:35.795Z,44.72
2023-05-08T18:23:02.936Z,44.83
2023-05-08T18:25:31.425Z,45.10
2023-05-08T18:28:00.935Z,45.22
2023-05-08T18:30:28.164Z,45.25
2023-05-08T18:32:56.001Z,45.88
2023-05-08T18:35:24.612Z,45.91
2023-05-08T18:37:53.540Z,45.94
2023-05-08T18:40:21.182Z,46.01
2023-05-08T18:42:50.747Z,46.40
2023-05-08T18:45:20.221Z,46.75
2023-05-08T18:47:48.451Z,47.24
2023-05-08T18:50:16.251Z,47.23
2023-05-08T18:52:44.267Z,47.73
2023-05-08T18:55:12.916Z,47.59
2023-05-08T18:57:40.404Z,48.02
2023-05-08T19:00:09.932Z,48.18
2023-05-08T19:02:41.193Z,48.25
2023-05-08T19:05:08.974Z,48.49
2023-05-08T19:07:37.954Z,48.76
2023-05-08T19:10:06.915Z,49.44
2023-05-08T19:12:35.425Z,49.75
2023-05-08T19:15:02.985Z,49.65
2023-05-08T19:17:30.420Z,49.36
2023-05-08T19:19:57.937Z,49.57
2023-05-08T19:22:26.778Z,50.05
2023-05-08T19:25:01.991Z,50.25
2023-05-08T19:27:29.469Z,50.74
2023-05-08T19:30:02.988Z,50.83
2023-05-08T19:32:33.421Z,51.31
2023-05-08T19:35:03.116Z,51.94
2023-05-08T19:37:30.428Z,52.07
2023-05-08T19:39:58.405Z,52.26
2023-05-08T19:42:26.249Z,52.44
2023-05-08T19:44:54.503Z,52.93
2023-05-08T19:47:21.978Z,52.84
2023-05-08T19:49:50.166Z,53.31
2023-05-08T19:52:17.348Z,53.63
2023-05-08T19:54:46.063Z,53.95
2023-05-08T19:57:13.678Z,54.19
2023-05-08T19:59:41.289Z,54.71
2023-05-08T20:02:08.833Z,55.08
2023-05-08T20:04:57.327Z,54.95
2023-05-08T20:07:25.708Z,56.25
2023-05-08T20:09:53.280Z,58.34
2023-05-08T20:12:20.553Z,60.23
2023-05-08T20:14:49.150Z,60.29
2023-05-08T20:17:16.368Z,60.16
2023-05-08T20:19:43.645Z,60.29
2023-05-08T20:22:12.339Z,60.60
2023-05-08T20:24:45.674Z,60.21
2023-05-08T20:27:14.141Z,60.31
2023-05-08T20:29:41.714Z,60.52
2023-05-08T20:32:13.941Z,61.57
2023-05-08T20:34:41.791Z,62.17
2023-05-08T20:37:16.312Z,62.93
2023-05-08T20:39:44.161Z,63.39
2023-05-08T20:42:13.049Z,64.47
2023-05-08T20:44:41.765Z,64.36
2023-05-08T20:47:09.075Z,64.72
2023-05-08T20:49:38.248Z,65.42
2023-05-08T20:52:12.208Z,66.09
2023-05-08T20:54:39.794Z,65.71
2023-05-08T20:57:08.527Z,66.45
2023-05-08T20:59:37.155Z,68.32
2023-05-08T21:02:04.593Z,70.52
2023-05-08T21:04:32.153Z,73.82
2023-05-08T21:06:59.546Z,76.61
2023-05-08T21:09:29.072Z,76.38
2023-05-08T21:11:56.456Z,72.96
2023-05-08T21:14:25.028Z,71.27
2023-05-08T21:16:54.303Z,70.96
2023-05-08T21:19:22.404Z,71.41
2023-05-08T21:21:51.954Z,71.71
2023-05-08T21:24:19.993Z,71.36
2023-05-08T21:26:48.336Z,71.41
2023-05-08T21:29:15.841Z,72.07
2023-05-08T21:31:44.304Z,72.24
2023-05-08T21:34:12.621Z,72.63
2023-05-08T21:36:39.905Z,74.27
2023-05-08T21:39:07.539Z,74.91
2023-05-08T21:41:34.739Z,75.62
2023-05-08T21:44:02.285Z,76.03
2023-05-08T21:46:29.409Z,76.25
2023-05-08T21:49:02.805Z,76.55
2023-05-08T21:51:30.356Z,77.50
2023-05-08T21:53:58.033Z,78.18
2023-05-08T21:56:26.731Z,78.62
2023-05-08T21:58:54.187Z,79.09
2023-05-08T22:01:21.892Z,80.44
2023-05-08T22:03:55.513Z,80.42
2023-05-08T22:06:24.391Z,80.43
2023-05-08T22:08:51.659Z,80.13
2023-05-08T22:11:19.269Z,81.66
2023-05-08T22:13:46.699Z,83.44
2023-05-08T22:16:14.128Z,84.85
2023-05-08T22:18:41.708Z,84.21
2023-05-08T22:21:10.193Z,84.44
2023-05-08T22:23:37.472Z,83.87
2023-05-08T22:26:04.995Z,84.26
2023-05-08T22:28:34.517Z,83.56
2023-05-08T22:31:01.929Z,82.87
2023-05-08T22:33:34.207Z,82.51
2023-05-08T22:36:01.560Z,82.27
2023-05-08T22:38:28.860Z,82.12
2023-05-08T22:40:57.746Z,82.49
2023-05-08T22:43:25.343Z,82.82
2023-05-08T22:45:53.531Z,82.96
2023-05-08T22:48:26.944Z,83.19
2023-05-08T22:50:54.419Z,83.62
2023-05-08T22:53:21.870Z,84.22
2023-05-08T22:55:50.348Z,84.40
2023-05-08T22:58:17.859Z,84.27
2023-05-08T23:00:51.047Z,84.61
2023-05-08T23:03:18.301Z,85.32
2023-05-08T23:05:49.219Z,85.10
2023-05-08T23:08:16.856Z,85.88
2023-05-08T23:10:44.486Z,87.05
2023-05-08T23:13:11.766Z,88.23
2023-05-08T23:15:39.267Z,88.69
2023-05-08T23:18:06.971Z,88.76
2023-05-08T23:20:38.025Z,89.33
2023-05-08T23:23:19.022Z,88.48
2023-05-08T23:25:46.467Z,88.39
2023-05-08T23:28:13.863Z,87.77
2023-05-08T23:30:41.372Z,88.12
2023-05-08T23:33:08.976Z,89.14
2023-05-08T23:35:38.544Z,89.01
2023-05-08T23:38:05.746Z,89.35
2023-05-08T23:40:33.186Z,88.42
2023-05-08T23:43:00.680Z,87.97
2023-05-08T23:45:28.868Z,88.82
2023-05-08T23:47:57.153Z,90.23
2023-05-08T23:50:24.602Z,90.59
2023-05-08T23:52:52.067Z,91.29
2023-05-08T23:55:20.696Z,91.19
2023-05-08T23:57:50.023Z,90.35
